sensor_id;sensor_type;location;lat;lon;timestamp;pressure;altitude;pressure_sealevel;temperature;humidity
10464;BME280;5279;42.048;24.638;2022-12-07T00:00:31;97656.03;;;4.34;100.00
10464;BME280;5279;42.048;24.638;2022-12-07T00:03:01;97653.00;;;4.40;100.00
10464;BME280;5279;42.048;24.638;2022-12-07T00:05:33;97654.06;;;4.25;100.00
10464;BME280;5279;42.048;24.638;2022-12-07T00:08:02;97664.84;;;4.33;100.00
10464;BME280;5279;42.048;24.638;2022-12-07T00:10:35;97654.16;;;4.36;100.00
10464;BME280;5279;42.048;24.638;2022-12-07T00:13:03;97646.28;;;4.24;100.00
10464;BME280;5279;42.048;24.638;2022-12-07T00:15:43;97655.50;;;4.29;100.00
10464;BME280;5279;42.048;24.638;2022-12-07T00:18:11;97650.66;;;4.23;100.00
10464;BME280;5279;42.048;24.638;2022-12-07T00:20:39;97651.09;;;4.30;100.00
10464;BME280;5279;42.048;24.638;2022-12-07T00:23:07;97657.19;;;4.30;100.00
10464;BME280;5279;42.048;24.638;2022-12-07T00:25:35;97658.47;;;4.37;100.00
10464;BME280;5279;42.048;24.638;2022-12-07T00:28:05;97658.88;;;4.31;100.00
10464;BME280;5279;42.048;24.638;2022-12-07T00:30:35;97649.53;;;4.27;100.00
10464;BME280;5279;42.048;24.638;2022-12-07T00:33:07;97658.47;;;4.37;100.00
10464;BME280;5279;42.048;24.638;2022-12-07T00:35:36;97664.31;;;4.41;100.00
10464;BME280;5279;42.048;24.638;2022-12-07T00:38:05;97666.63;;;4.46;100.00
10464;BME280;5279;42.048;24.638;2022-12-07T00:40:36;97661.38;;;4.46;100.00
10464;BME280;5279;42.048;24.638;2022-12-07T00:43:07;97663.66;;;4.50;100.00
10464;BME280;5279;42.048;24.638;2022-12-07T00:45:37;97656.56;;;4.39;100.00
10464;BME280;5279;42.048;24.638;2022-12-07T00:48:07;97659.69;;;4.45;100.00
10464;BME280;5279;42.048;24.638;2022-12-07T00:50:36;97659.69;;;4.45;100.00
10464;BME280;5279;42.048;24.638;2022-12-07T00:53:05;97646.38;;;4.48;100.00
10464;BME280;5279;42.048;24.638;2022-12-07T00:55:33;97659.59;;;4.46;100.00
10464;BME280;5279;42.048;24.638;2022-12-07T00:58:05;97683.00;;;4.36;100.00
10464;BME280;5279;42.048;24.638;2022-12-07T01:00:36;97654.47;;;4.19;100.00
10464;BME280;5279;42.048;24.638;2022-12-07T01:03:09;97634.22;;;4.21;100.00
10464;BME280;5279;42.048;24.638;2022-12-07T01:05:50;97645.22;;;4.26;100.00
10464;BME280;5279;42.048;24.638;2022-12-07T01:08:17;97641.03;;;4.36;100.00
10464;BME280;5279;42.048;24.638;2022-12-07T01:10:45;97642.28;;;4.44;100.00
10464;BME280;5279;42.048;24.638;2022-12-07T01:13:13;97634.63;;;4.40;100.00
10464;BME280;5279;42.048;24.638;2022-12-07T01:15:46;97623.19;;;4.29;100.00
10464;BME280;5279;42.048;24.638;2022-12-07T01:18:16;97622.16;;;4.06;100.00
10464;BME280;5279;42.048;24.638;2022-12-07T01:20:58;97636.31;;;4.16;100.00
10464;BME280;5279;42.048;24.638;2022-12-07T01:23:28;97630.00;;;4.06;100.00
10464;BME280;5279;42.048;24.638;2022-12-07T01:26:11;97636.53;;;4.13;100.00
10464;BME280;5279;42.048;24.638;2022-12-07T01:28:39;97630.94;;;4.05;100.00
10464;BME280;5279;42.048;24.638;2022-12-07T01:31:08;97630.31;;;4.14;100.00
10464;BME280;5279;42.048;24.638;2022-12-07T01:33:39;97623.22;;;4.16;100.00
10464;BME280;5279;42.048;24.638;2022-12-07T01:36:08;97615.44;;;4.15;100.00
10464;BME280;5279;42.048;24.638;2022-12-07T01:38:45;97624.03;;;4.17;100.00
10464;BME280;5279;42.048;24.638;2022-12-07T01:41:14;97621.53;;;4.15;100.00
10464;BME280;5279;42.048;24.638;2022-12-07T01:44:08;97615.44;;;4.15;100.00
10464;BME280;5279;42.048;24.638;2022-12-07T01:46:44;97613.34;;;4.07;100.00
10464;BME280;5279;42.048;24.638;2022-12-07T01:49:19;97606.84;;;4.00;100.00
10464;BME280;5279;42.048;24.638;2022-12-07T01:52:01;97607.69;;;4.13;100.00
10464;BME280;5279;42.048;24.638;2022-12-07T01:54:33;97612.69;;;3.91;100.00
10464;BME280;5279;42.048;24.638;2022-12-07T01:57:02;97597.38;;;3.72;100.00
10464;BME280;5279;42.048;24.638;2022-12-07T01:59:30;97601.78;;;3.84;100.00
10464;BME280;5279;42.048;24.638;2022-12-07T02:01:57;97604.91;;;3.90;100.00
10464;BME280;5279;42.048;24.638;2022-12-07T02:04:33;97600.94;;;3.84;100.00
10464;BME280;5279;42.048;24.638;2022-12-07T02:07:02;97601.78;;;3.84;100.00
10464;BME280;5279;42.048;24.638;2022-12-07T02:09:30;97588.56;;;3.86;100.00
10464;BME280;5279;42.048;24.638;2022-12-07T02:11:59;97591.28;;;3.84;100.00
10464;BME280;5279;42.048;24.638;2022-12-07T02:14:27;97602.00;;;3.94;100.00
10464;BME280;5279;42.048;24.638;2022-12-07T02:17:06;97600.91;;;3.71;100.00
10464;BME280;5279;42.048;24.638;2022-12-07T02:20:06;97593.81;;;3.73;100.00
10464;BME280;5279;42.048;24.638;2022-12-07T02:29:11;97600.09;;;3.96;100.00
10464;BME280;5279;42.048;24.638;2022-12-07T02:31:49;97583.13;;;4.02;100.00
10464;BME280;5279;42.048;24.638;2022-12-07T02:34:22;97580.28;;;3.79;100.00
10464;BME280;5279;42.048;24.638;2022-12-07T02:36:59;97591.31;;;3.97;100.00
10464;BME280;5279;42.048;24.638;2022-12-07T02:39:33;97561.41;;;3.87;100.00
10464;BME280;5279;42.048;24.638;2022-12-07T02:42:10;97568.22;;;4.02;100.00
10464;BME280;5279;42.048;24.638;2022-12-07T02:44:55;97570.22;;;4.11;100.00
10464;BME280;5279;42.048;24.638;2022-12-07T02:47:25;97570.22;;;4.11;100.00
10464;BME280;5279;42.048;24.638;2022-12-07T02:49:54;97564.38;;;3.95;100.00
10464;BME280;5279;42.048;24.638;2022-12-07T02:52:24;97562.69;;;4.07;100.00
10464;BME280;5279;42.048;24.638;2022-12-07T02:54:53;97562.91;;;3.91;100.00
10464;BME280;5279;42.048;24.638;2022-12-07T02:57:42;97559.00;;;3.97;100.00
10464;BME280;5279;42.048;24.638;2022-12-07T03:00:16;97562.91;;;3.91;100.00
10464;BME280;5279;42.048;24.638;2022-12-07T03:02:55;97548.72;;;3.81;100.00
10464;BME280;5279;42.048;24.638;2022-12-07T03:05:48;97558.78;;;3.74;100.00
10464;BME280;5279;42.048;24.638;2022-12-07T03:08:24;97554.19;;;3.78;100.00
10464;BME280;5279;42.048;24.638;2022-12-07T03:10:59;97556.28;;;3.73;100.00
10464;BME280;5279;42.048;24.638;2022-12-07T03:13:34;97560.25;;;3.78;100.00
10464;BME280;5279;42.048;24.638;2022-12-07T03:16:21;97555.31;;;3.74;100.00
10464;BME280;5279;42.048;24.638;2022-12-07T03:18:53;97560.69;;;3.85;100.00
10464;BME280;5279;42.048;24.638;2022-12-07T03:21:26;97567.72;;;3.97;100.00
10464;BME280;5279;42.048;24.638;2022-12-07T03:24:00;97565.53;;;4.04;100.00
10464;BME280;5279;42.048;24.638;2022-12-07T03:26:36;97557.31;;;3.96;100.00
10464;BME280;5279;42.048;24.638;2022-12-07T03:29:14;97564.69;;;4.03;100.00
10464;BME280;5279;42.048;24.638;2022-12-07T03:31:52;97556.72;;;3.92;100.00
10464;BME280;5279;42.048;24.638;2022-12-07T03:34:31;97562.16;;;3.89;100.00
10464;BME280;5279;42.048;24.638;2022-12-07T03:37:05;97579.34;;;3.93;100.00
10464;BME280;5279;42.048;24.638;2022-12-07T03:39:38;97575.78;;;3.94;100.00
10464;BME280;5279;42.048;24.638;2022-12-07T03:42:09;97576.00;;;3.91;100.00
10464;BME280;5279;42.048;24.638;2022-12-07T03:44:40;97568.84;;;3.93;100.00
10464;BME280;5279;42.048;24.638;2022-12-07T03:47:17;97570.13;;;4.00;100.00
10464;BME280;5279;42.048;24.638;2022-12-07T03:49:53;97562.47;;;3.97;100.00
10464;BME280;5279;42.048;24.638;2022-12-07T03:52:26;97547.69;;;3.96;100.00
10464;BME280;5279;42.048;24.638;2022-12-07T03:55:00;97543.50;;;3.94;100.00
10464;BME280;5279;42.048;24.638;2022-12-07T03:57:32;97553.97;;;4.06;100.00
10464;BME280;5279;42.048;24.638;2022-12-07T04:00:06;97548.31;;;4.12;100.00
10464;BME280;5279;42.048;24.638;2022-12-07T04:02:37;97546.03;;;3.95;100.00
10464;BME280;5279;42.048;24.638;2022-12-07T04:05:07;97551.88;;;4.11;100.00
10464;BME280;5279;42.048;24.638;2022-12-07T04:07:36;97533.72;;;4.08;100.00
10464;BME280;5279;42.048;24.638;2022-12-07T04:10:06;97548.09;;;4.15;100.00
10464;BME280;5279;42.048;24.638;2022-12-07T04:12:45;97543.78;;;4.14;100.00
10464;BME280;5279;42.048;24.638;2022-12-07T04:15:15;97536.13;;;4.11;100.00
10464;BME280;5279;42.048;24.638;2022-12-07T04:17:47;97550.72;;;4.15;100.00
10464;BME280;5279;42.048;24.638;2022-12-07T04:20:22;97540.31;;;4.14;100.00
10464;BME280;5279;42.048;24.638;2022-12-07T04:22:51;97542.22;;;4.24;100.00
10464;BME280;5279;42.048;24.638;2022-12-07T04:25:19;97535.50;;;4.08;100.00
10464;BME280;5279;42.048;24.638;2022-12-07T04:27:47;97532.56;;;4.12;100.00
10464;BME280;5279;42.048;24.638;2022-12-07T04:30:15;97531.53;;;4.15;100.00
10464;BME280;5279;42.048;24.638;2022-12-07T04:32:46;97537.19;;;4.21;100.00
10464;BME280;5279;42.048;24.638;2022-12-07T04:35:15;97535.84;;;4.16;100.00
10464;BME280;5279;42.048;24.638;2022-12-07T04:37:44;97530.03;;;4.23;100.00
10464;BME280;5279;42.048;24.638;2022-12-07T04:40:14;97524.78;;;4.23;100.00
10464;BME280;5279;42.048;24.638;2022-12-07T04:42:44;97530.34;;;4.31;100.00
10464;BME280;5279;42.048;24.638;2022-12-07T04:45:13;97516.84;;;4.12;100.00
10464;BME280;5279;42.048;24.638;2022-12-07T04:47:42;97540.09;;;4.29;100.00
10464;BME280;5279;42.048;24.638;2022-12-07T04:50:13;97530.03;;;4.23;100.00
10464;BME280;5279;42.048;24.638;2022-12-07T04:52:46;97533.00;;;4.06;100.00
10464;BME280;5279;42.048;24.638;2022-12-07T04:55:18;97546.13;;;4.06;100.00
10464;BME280;5279;42.048;24.638;2022-12-07T04:57:57;97534.28;;;4.01;100.00
10464;BME280;5279;42.048;24.638;2022-12-07T05:00:26;97531.53;;;3.77;100.00
10464;BME280;5279;42.048;24.638;2022-12-07T05:02:55;97537.50;;;3.66;100.00
10464;BME280;5279;42.048;24.638;2022-12-07T05:05:28;97532.91;;;3.70;100.00
10464;BME280;5279;42.048;24.638;2022-12-07T05:08:00;97533.22;;;3.78;100.00
10464;BME280;5279;42.048;24.638;2022-12-07T05:10:28;97541.50;;;3.84;100.00
10464;BME280;5279;42.048;24.638;2022-12-07T05:12:57;97533.22;;;3.91;100.00
10464;BME280;5279;42.048;24.638;2022-12-07T05:15:26;97537.41;;;3.80;100.00
10464;BME280;5279;42.048;24.638;2022-12-07T05:17:54;97531.09;;;3.83;100.00
10464;BME280;5279;42.048;24.638;2022-12-07T05:20:24;97535.97;;;3.89;100.00
10464;BME280;5279;42.048;24.638;2022-12-07T05:22:53;97548.09;;;4.03;100.00
10464;BME280;5279;42.048;24.638;2022-12-07T05:25:58;97546.00;;;4.08;100.00
10464;BME280;5279;42.048;24.638;2022-12-07T05:28:28;97557.31;;;4.08;100.00
10464;BME280;5279;42.048;24.638;2022-12-07T05:30:58;97563.63;;;4.06;100.00
10464;BME280;5279;42.048;24.638;2022-12-07T05:33:27;97555.44;;;4.10;100.00
10464;BME280;5279;42.048;24.638;2022-12-07T05:36:09;97546.63;;;4.11;100.00
10464;BME280;5279;42.048;24.638;2022-12-07T05:38:39;97554.59;;;4.22;100.00
10464;BME280;5279;42.048;24.638;2022-12-07T05:41:11;97554.91;;;4.30;100.00
10464;BME280;5279;42.048;24.638;2022-12-07T05:44:00;97556.47;;;4.33;100.00
10464;BME280;5279;42.048;24.638;2022-12-07T05:46:28;97545.19;;;4.07;100.00
10464;BME280;5279;42.048;24.638;2022-12-07T05:48:59;97541.81;;;4.05;100.00
10464;BME280;5279;42.048;24.638;2022-12-07T05:51:29;97535.53;;;3.95;100.00
10464;BME280;5279;42.048;24.638;2022-12-07T05:54:03;97562.16;;;3.89;100.00
10464;BME280;5279;42.048;24.638;2022-12-07T05:56:33;97543.28;;;4.09;100.00
10464;BME280;5279;42.048;24.638;2022-12-07T05:59:03;97537.59;;;4.15;100.00
10464;BME280;5279;42.048;24.638;2022-12-07T06:01:56;97551.13;;;4.34;100.00
10464;BME280;5279;42.048;24.638;2022-12-07T06:04:27;97549.28;;;4.48;100.00
10464;BME280;5279;42.048;24.638;2022-12-07T06:06:58;97545.22;;;4.44;100.00
10464;BME280;5279;42.048;24.638;2022-12-07T06:09:29;97553.66;;;4.60;100.00
10464;BME280;5279;42.048;24.638;2022-12-07T06:11:58;97544.66;;;4.64;100.00
10464;BME280;5279;42.048;24.638;2022-12-07T06:14:53;97555.28;;;4.86;100.00
10464;BME280;5279;42.048;24.638;2022-12-07T06:17:22;97578.47;;;4.92;100.00
10464;BME280;5279;42.048;24.638;2022-12-07T06:19:50;97576.56;;;4.94;100.00
10464;BME280;5279;42.048;24.638;2022-12-07T06:22:21;97565.50;;;5.02;100.00
10464;BME280;5279;42.048;24.638;2022-12-07T06:24:51;97558.75;;;5.10;100.00
10464;BME280;5279;42.048;24.638;2022-12-07T06:27:20;97568.53;;;5.08;100.00
10464;BME280;5279;42.048;24.638;2022-12-07T06:29:49;97569.94;;;5.01;100.00
10464;BME280;5279;42.048;24.638;2022-12-07T06:32:18;97559.75;;;5.20;100.00
10464;BME280;5279;42.048;24.638;2022-12-07T06:34:47;97559.28;;;5.26;100.00
10464;BME280;5279;42.048;24.638;2022-12-07T06:37:16;97575.66;;;5.30;100.00
10464;BME280;5279;42.048;24.638;2022-12-07T06:39:44;97551.41;;;5.50;100.00
10464;BME280;5279;42.048;24.638;2022-12-07T06:42:16;97560.38;;;5.59;100.00
10464;BME280;5279;42.048;24.638;2022-12-07T06:44:49;97573.53;;;5.59;100.00
10464;BME280;5279;42.048;24.638;2022-12-07T06:47:18;97561.13;;;5.72;100.00
10464;BME280;5279;42.048;24.638;2022-12-07T06:49:47;97559.06;;;5.99;100.00
10464;BME280;5279;42.048;24.638;2022-12-07T06:52:16;97549.78;;;6.28;100.00
10464;BME280;5279;42.048;24.638;2022-12-07T06:54:44;97549.78;;;6.50;100.00
10464;BME280;5279;42.048;24.638;2022-12-07T06:57:15;97550.78;;;6.81;100.00
10464;BME280;5279;42.048;24.638;2022-12-07T06:59:44;97561.38;;;7.13;100.00
10464;BME280;5279;42.048;24.638;2022-12-07T07:02:13;97550.28;;;7.30;100.00
10464;BME280;5279;42.048;24.638;2022-12-07T07:04:44;97558.06;;;7.63;100.00
10464;BME280;5279;42.048;24.638;2022-12-07T07:07:14;97551.00;;;7.85;100.00
10464;BME280;5279;42.048;24.638;2022-12-07T07:09:42;97549.97;;;7.97;100.00
10464;BME280;5279;42.048;24.638;2022-12-07T07:12:16;97551.63;;;7.98;100.00
10464;BME280;5279;42.048;24.638;2022-12-07T07:14:45;97561.41;;;8.07;100.00
10464;BME280;5279;42.048;24.638;2022-12-07T07:17:15;97559.22;;;8.12;100.00
10464;BME280;5279;42.048;24.638;2022-12-07T07:19:49;97563.09;;;8.08;100.00
10464;BME280;5279;42.048;24.638;2022-12-07T07:22:18;97552.03;;;8.14;100.00
10464;BME280;5279;42.048;24.638;2022-12-07T07:24:51;97560.78;;;8.35;100.00
10464;BME280;5279;42.048;24.638;2022-12-07T07:27:22;97558.66;;;8.59;100.00
10464;BME280;5279;42.048;24.638;2022-12-07T07:29:50;97563.13;;;8.68;100.00
10464;BME280;5279;42.048;24.638;2022-12-07T07:32:18;97557.34;;;8.94;100.00
10464;BME280;5279;42.048;24.638;2022-12-07T07:34:47;97570.06;;;9.19;100.00
10464;BME280;5279;42.048;24.638;2022-12-07T07:37:16;97558.56;;;9.39;100.00
10464;BME280;5279;42.048;24.638;2022-12-07T07:39:44;97558.00;;;9.64;100.00
10464;BME280;5279;42.048;24.638;2022-12-07T07:42:13;97558.53;;;9.87;100.00
10464;BME280;5279;42.048;24.638;2022-12-07T07:44:45;97558.53;;;9.77;96.31
10464;BME280;5279;42.048;24.638;2022-12-07T07:47:19;97572.72;;;9.96;93.77
10464;BME280;5279;42.048;24.638;2022-12-07T07:49:48;97566.03;;;10.01;93.99
10464;BME280;5279;42.048;24.638;2022-12-07T07:52:16;97569.53;;;10.21;89.86
10464;BME280;5279;42.048;24.638;2022-12-07T07:54:45;97571.13;;;10.41;86.43
10464;BME280;5279;42.048;24.638;2022-12-07T07:57:13;97569.16;;;10.80;90.15
10464;BME280;5279;42.048;24.638;2022-12-07T07:59:45;97558.94;;;11.12;85.91
10464;BME280;5279;42.048;24.638;2022-12-07T08:02:15;97566.34;;;11.53;85.31
10464;BME280;5279;42.048;24.638;2022-12-07T08:04:44;97568.69;;;11.92;79.49
10464;BME280;5279;42.048;24.638;2022-12-07T08:07:24;97568.56;;;11.76;76.00
10464;BME280;5279;42.048;24.638;2022-12-07T08:09:54;97570.41;;;12.19;77.15
10464;BME280;5279;42.048;24.638;2022-12-07T08:12:25;97568.63;;;12.53;72.48
10464;BME280;5279;42.048;24.638;2022-12-07T08:14:55;97561.81;;;12.92;70.27
10464;BME280;5279;42.048;24.638;2022-12-07T08:17:26;97563.69;;;13.34;67.92
10464;BME280;5279;42.048;24.638;2022-12-07T08:19:55;97557.09;;;13.78;66.08
10464;BME280;5279;42.048;24.638;2022-12-07T08:22:24;97556.41;;;14.33;65.90
10464;BME280;5279;42.048;24.638;2022-12-07T08:24:53;97552.00;;;14.80;62.56
10464;BME280;5279;42.048;24.638;2022-12-07T08:27:21;97554.44;;;15.28;59.23
10464;BME280;5279;42.048;24.638;2022-12-07T08:29:55;97551.38;;;15.40;59.82
10464;BME280;5279;42.048;24.638;2022-12-07T08:32:24;97559.59;;;15.61;58.99
10464;BME280;5279;42.048;24.638;2022-12-07T08:34:52;97548.84;;;15.69;56.89
10464;BME280;5279;42.048;24.638;2022-12-07T08:37:20;97576.47;;;15.61;57.96
10464;BME280;5279;42.048;24.638;2022-12-07T08:39:54;97560.03;;;15.95;56.85
10464;BME280;5279;42.048;24.638;2022-12-07T08:42:22;97553.25;;;16.07;56.63
10464;BME280;5279;42.048;24.638;2022-12-07T08:45:11;97553.28;;;15.99;57.35
10464;BME280;5279;42.048;24.638;2022-12-07T08:47:43;97550.78;;;16.58;55.45
10464;BME280;5279;42.048;24.638;2022-12-07T08:50:17;97552.56;;;16.80;54.30
10464;BME280;5279;42.048;24.638;2022-12-07T08:52:48;97539.25;;;17.01;55.02
10464;BME280;5279;42.048;24.638;2022-12-07T08:55:18;97543.34;;;17.33;53.47
10464;BME280;5279;42.048;24.638;2022-12-07T08:57:47;97556.38;;;17.21;53.75
10464;BME280;5279;42.048;24.638;2022-12-07T09:00:18;97552.41;;;17.32;52.89
10464;BME280;5279;42.048;24.638;2022-12-07T09:02:46;97532.03;;;17.52;52.65
10464;BME280;5279;42.048;24.638;2022-12-07T09:05:15;97535.59;;;17.74;51.64
10464;BME280;5279;42.048;24.638;2022-12-07T09:07:45;97526.09;;;18.76;49.74
10464;BME280;5279;42.048;24.638;2022-12-07T09:10:15;97511.78;;;19.03;47.56
10464;BME280;5279;42.048;24.638;2022-12-07T09:12:44;97508.41;;;18.88;46.94
10464;BME280;5279;42.048;24.638;2022-12-07T09:15:13;97508.88;;;18.98;47.39
10464;BME280;5279;42.048;24.638;2022-12-07T09:17:43;97502.81;;;19.24;47.29
10464;BME280;5279;42.048;24.638;2022-12-07T09:20:12;97505.47;;;19.84;45.02
10464;BME280;5279;42.048;24.638;2022-12-07T09:22:40;97484.16;;;20.02;44.95
10464;BME280;5279;42.048;24.638;2022-12-07T09:25:09;97485.97;;;20.67;43.82
10464;BME280;5279;42.048;24.638;2022-12-07T09:27:55;97489.44;;;21.45;41.38
10464;BME280;5279;42.048;24.638;2022-12-07T09:30:23;97468.81;;;21.89;40.84
10464;BME280;5279;42.048;24.638;2022-12-07T09:32:54;97475.34;;;21.74;39.83
10464;BME280;5279;42.048;24.638;2022-12-07T09:35:32;97487.53;;;22.40;38.84
10464;BME280;5279;42.048;24.638;2022-12-07T09:38:09;97474.28;;;23.11;38.27
10464;BME280;5279;42.048;24.638;2022-12-07T09:40:37;97456.66;;;23.56;36.50
10464;BME280;5279;42.048;24.638;2022-12-07T09:43:11;97461.44;;;23.84;34.88
10464;BME280;5279;42.048;24.638;2022-12-07T09:45:40;97446.03;;;23.43;35.99
10464;BME280;5279;42.048;24.638;2022-12-07T09:48:17;97455.69;;;22.84;36.68
10464;BME280;5279;42.048;24.638;2022-12-07T09:50:47;97446.66;;;23.27;36.29
10464;BME280;5279;42.048;24.638;2022-12-07T09:53:23;97448.22;;;23.16;35.98
10464;BME280;5279;42.048;24.638;2022-12-07T09:55:51;97441.44;;;23.73;35.94
10464;BME280;5279;42.048;24.638;2022-12-07T09:58:22;97432.34;;;24.21;35.18
10464;BME280;5279;42.048;24.638;2022-12-07T10:00:53;97446.31;;;24.06;34.70
10464;BME280;5279;42.048;24.638;2022-12-07T10:03:26;97441.00;;;24.00;34.84
10464;BME280;5279;42.048;24.638;2022-12-07T10:05:55;97435.13;;;22.83;36.87
10464;BME280;5279;42.048;24.638;2022-12-07T10:08:25;97447.28;;;22.74;37.18
10464;BME280;5279;42.048;24.638;2022-12-07T10:10:57;97445.84;;;22.90;36.48
10464;BME280;5279;42.048;24.638;2022-12-07T10:13:36;97448.59;;;22.47;37.16
10464;BME280;5279;42.048;24.638;2022-12-07T10:16:05;97441.97;;;22.25;36.93
10464;BME280;5279;42.048;24.638;2022-12-07T10:18:36;97428.69;;;21.99;38.42
10464;BME280;5279;42.048;24.638;2022-12-07T10:21:12;97438.34;;;22.13;38.64
10464;BME280;5279;42.048;24.638;2022-12-07T10:23:42;97431.47;;;22.35;37.69
10464;BME280;5279;42.048;24.638;2022-12-07T10:26:29;97404.88;;;21.40;39.43
10464;BME280;5279;42.048;24.638;2022-12-07T10:29:00;97420.84;;;21.66;38.81
10464;BME280;5279;42.048;24.638;2022-12-07T10:31:29;97417.75;;;22.18;38.83
10464;BME280;5279;42.048;24.638;2022-12-07T10:33:59;97418.88;;;22.47;37.03
10464;BME280;5279;42.048;24.638;2022-12-07T10:36:34;97412.81;;;23.06;37.19
10464;BME280;5279;42.048;24.638;2022-12-07T10:39:11;97405.06;;;23.69;35.74
10464;BME280;5279;42.048;24.638;2022-12-07T10:41:54;97400.56;;;24.39;33.47
10464;BME280;5279;42.048;24.638;2022-12-07T10:44:24;97392.88;;;24.48;33.05
10464;BME280;5279;42.048;24.638;2022-12-07T10:47:14;97408.28;;;25.22;32.17
10464;BME280;5279;42.048;24.638;2022-12-07T10:50:08;97405.66;;;26.17;30.76
10464;BME280;5279;42.048;24.638;2022-12-07T10:52:50;97410.72;;;25.80;31.01
10464;BME280;5279;42.048;24.638;2022-12-07T10:55:46;97407.78;;;25.98;31.11
10464;BME280;5279;42.048;24.638;2022-12-07T10:58:36;97404.69;;;26.45;29.79
10464;BME280;5279;42.048;24.638;2022-12-07T11:01:16;97406.44;;;27.11;29.14
10464;BME280;5279;42.048;24.638;2022-12-07T11:04:10;97405.59;;;27.10;29.10
10464;BME280;5279;42.048;24.638;2022-12-07T11:06:47;97408.91;;;26.36;29.88
10464;BME280;5279;42.048;24.638;2022-12-07T11:09:47;97402.50;;;26.08;30.47
10464;BME280;5279;42.048;24.638;2022-12-07T11:12:24;97399.97;;;26.57;30.07
10464;BME280;5279;42.048;24.638;2022-12-07T11:15:00;97399.97;;;26.57;29.78
10464;BME280;5279;42.048;24.638;2022-12-07T11:17:35;97394.41;;;26.85;29.28
10464;BME280;5279;42.048;24.638;2022-12-07T11:20:20;97381.53;;;26.21;29.90
10464;BME280;5279;42.048;24.638;2022-12-07T11:23:01;97389.16;;;25.74;30.69
10464;BME280;5279;42.048;24.638;2022-12-07T11:25:34;97377.00;;;24.17;32.55
10464;BME280;5279;42.048;24.638;2022-12-07T11:28:18;97378.69;;;22.39;35.17
10464;BME280;5279;42.048;24.638;2022-12-07T11:30:54;97371.69;;;20.95;38.22
10464;BME280;5279;42.048;24.638;2022-12-07T11:33:29;97382.19;;;20.71;38.62
10464;BME280;5279;42.048;24.638;2022-12-07T11:36:13;97376.03;;;21.09;38.31
10464;BME280;5279;42.048;24.638;2022-12-07T11:38:49;97367.19;;;20.89;38.86
10464;BME280;5279;42.048;24.638;2022-12-07T11:41:22;97368.84;;;20.90;39.29
10464;BME280;5279;42.048;24.638;2022-12-07T11:43:55;97355.28;;;19.61;41.62
10464;BME280;5279;42.048;24.638;2022-12-07T11:46:28;97334.97;;;19.13;42.58
10464;BME280;5279;42.048;24.638;2022-12-07T11:49:11;97345.91;;;18.44;44.30
10464;BME280;5279;42.048;24.638;2022-12-07T11:51:43;97347.97;;;17.74;46.46
10464;BME280;5279;42.048;24.638;2022-12-07T11:54:17;97346.63;;;17.35;48.01
10464;BME280;5279;42.048;24.638;2022-12-07T11:56:49;97337.94;;;16.70;49.92
10464;BME280;5279;42.048;24.638;2022-12-07T11:59:21;97344.38;;;16.25;52.34
10464;BME280;5279;42.048;24.638;2022-12-07T12:01:55;97344.22;;;15.82;53.19
10464;BME280;5279;42.048;24.638;2022-12-07T12:04:47;97342.38;;;15.46;54.84
10464;BME280;5279;42.048;24.638;2022-12-07T12:07:20;97326.66;;;15.13;55.27
10464;BME280;5279;42.048;24.638;2022-12-07T12:09:52;97343.38;;;15.07;57.07
10464;BME280;5279;42.048;24.638;2022-12-07T12:15:54;97323.78;;;15.15;56.53
10464;BME280;5279;42.048;24.638;2022-12-07T12:21:37;97330.59;;;14.80;57.82
10464;BME280;5279;42.048;24.638;2022-12-07T12:24:11;97308.19;;;14.36;58.76
10464;BME280;5279;42.048;24.638;2022-12-07T12:26:49;97322.59;;;14.18;61.76
10464;BME280;5279;42.048;24.638;2022-12-07T12:29:26;97318.59;;;14.14;61.86
10464;BME280;5279;42.048;24.638;2022-12-07T12:32:11;97316.66;;;14.00;63.06
10464;BME280;5279;42.048;24.638;2022-12-07T12:34:42;97311.00;;;13.95;63.25
10464;BME280;5279;42.048;24.638;2022-12-07T12:37:42;97311.47;;;14.46;61.54
10464;BME280;5279;42.048;24.638;2022-12-07T12:40:38;97308.81;;;14.91;59.78
10464;BME280;5279;42.048;24.638;2022-12-07T12:43:42;97303.91;;;14.80;60.79
10464;BME280;5279;42.048;24.638;2022-12-07T12:46:44;97296.13;;;14.48;61.82
10464;BME280;5279;42.048;24.638;2022-12-07T12:56:13;97294.16;;;13.64;66.40
10464;BME280;5279;42.048;24.638;2022-12-07T13:02:20;97292.25;;;13.18;71.14
10464;BME280;5279;42.048;24.638;2022-12-07T13:04:55;97282.59;;;12.92;71.77
10464;BME280;5279;42.048;24.638;2022-12-07T13:10:40;97287.59;;;12.63;74.99
10464;BME280;5279;42.048;24.638;2022-12-07T13:13:33;97283.06;;;12.47;76.57
10464;BME280;5279;42.048;24.638;2022-12-07T13:16:37;97289.38;;;12.38;78.66
10464;BME280;5279;42.048;24.638;2022-12-07T13:22:43;97280.84;;;12.11;81.45
10464;BME280;5279;42.048;24.638;2022-12-07T13:25:19;97303.88;;;12.02;82.53
10464;BME280;5279;42.048;24.638;2022-12-07T13:27:54;97297.75;;;12.01;83.66
10464;BME280;5279;42.048;24.638;2022-12-07T13:30:23;97306.84;;;11.91;85.35
10464;BME280;5279;42.048;24.638;2022-12-07T13:32:57;97313.63;;;11.85;85.46
10464;BME280;5279;42.048;24.638;2022-12-07T13:35:36;97312.28;;;11.81;83.95
10464;BME280;5279;42.048;24.638;2022-12-07T13:38:13;97313.94;;;11.82;84.46
10464;BME280;5279;42.048;24.638;2022-12-07T13:41:12;97308.63;;;11.82;86.86
10464;BME280;5279;42.048;24.638;2022-12-07T13:43:44;97307.91;;;11.72;86.81
10464;BME280;5279;42.048;24.638;2022-12-07T13:46:40;97302.28;;;11.75;86.26
10464;BME280;5279;42.048;24.638;2022-12-07T13:49:26;97306.63;;;11.76;85.88
10464;BME280;5279;42.048;24.638;2022-12-07T13:51:55;97297.91;;;11.66;86.82
10464;BME280;5279;42.048;24.638;2022-12-07T13:54:44;97292.00;;;11.72;87.27
10464;BME280;5279;42.048;24.638;2022-12-07T13:57:13;97301.63;;;11.73;88.93
10464;BME280;5279;42.048;24.638;2022-12-07T13:59:41;97303.59;;;11.71;88.54
10464;BME280;5279;42.048;24.638;2022-12-07T14:02:19;97311.56;;;11.71;89.90
10464;BME280;5279;42.048;24.638;2022-12-07T14:04:51;97305.53;;;11.69;90.84